createdAt,value
2022-07-26T00:00:19.623Z,42.17
2022-07-26T00:03:16.717Z,42.24
2022-07-26T00:05:56.875Z,42.26
2022-07-26T00:08:44.005Z,42.37
2022-07-26T00:11:56.736Z,42.26
2022-07-26T00:14:25.388Z,42.31
2022-07-26T00:16:52.675Z,42.34
2022-07-26T00:19:24.429Z,42.42
2022-07-26T00:22:36.507Z,42.48
2022-07-26T00:25:06.501Z,42.81
2022-07-26T00:27:57.522Z,42.93
2022-07-26T00:30:46.258Z,42.97
2022-07-26T00:33:52.689Z,42.94
2022-07-26T00:36:41.910Z,42.78
2022-07-26T00:39:14.718Z,42.93
2022-07-26T00:41:55.415Z,43.15
2022-07-26T00:44:25.111Z,43.19
2022-07-26T00:46:57.933Z,43.26
2022-07-26T00:49:33.673Z,43.12
2022-07-26T00:52:34.692Z,43.26
2022-07-26T00:55:09.907Z,43.12
2022-07-26T00:57:51.202Z,43.20
2022-07-26T01:00:33.958Z,43.36
2022-07-26T01:03:00.925Z,43.36
2022-07-26T01:06:11.314Z,43.36
2022-07-26T01:08:47.063Z,43.60
2022-07-26T01:11:16.388Z,43.67
2022-07-26T01:13:59.505Z,43.88
2022-07-26T01:16:59.725Z,44.24
2022-07-26T01:19:34.103Z,44.23
2022-07-26T01:22:16.196Z,44.47
2022-07-26T01:25:01.630Z,44.95
2022-07-26T01:28:08.852Z,45.09
2022-07-26T01:31:08.606Z,45.20
2022-07-26T01:34:15.926Z,45.57
2022-07-26T01:36:52.704Z,45.66
2022-07-26T01:39:23.429Z,45.93
2022-07-26T01:41:54.052Z,46.12
2022-07-26T01:46:24.106Z,46.28
2022-07-26T01:51:03.420Z,46.65
2022-07-26T01:54:01.414Z,46.71
2022-07-26T01:56:35.338Z,46.70
2022-07-26T01:59:09.565Z,46.74
2022-07-26T02:01:40.228Z,46.73
2022-07-26T02:04:33.823Z,46.72
2022-07-26T02:07:05.375Z,46.76
2022-07-26T02:09:40.586Z,46.93
2022-07-26T02:12:13.125Z,47.04
2022-07-26T02:14:50.296Z,46.91
2022-07-26T02:17:30.333Z,46.91
2022-07-26T02:19:59.846Z,47.03
2022-07-26T02:22:56.795Z,47.04
2022-07-26T02:25:31.196Z,47.17
2022-07-26T02:28:06.321Z,47.32
2022-07-26T02:30:33.333Z,47.49
2022-07-26T02:33:22.772Z,47.46
2022-07-26T02:35:52.335Z,47.57
2022-07-26T02:38:19.313Z,47.59
2022-07-26T02:40:51.397Z,47.88
2022-07-26T02:43:36.554Z,48.06
2022-07-26T02:46:25.957Z,47.99
2022-07-26T02:49:01.217Z,48.04
2022-07-26T02:51:28.101Z,48.04
2022-07-26T02:53:54.936Z,48.00
2022-07-26T02:56:29.573Z,48.08
2022-07-26T02:58:58.680Z,48.18
2022-07-26T03:01:25.796Z,48.18
2022-07-26T03:03:52.589Z,48.20
2022-07-26T03:06:24.027Z,48.33
2022-07-26T03:08:59.742Z,48.52
2022-07-26T03:11:26.493Z,48.63
2022-07-26T03:16:56.735Z,48.69
2022-07-26T03:19:35.375Z,48.53
2022-07-26T03:22:41.527Z,48.52
2022-07-26T03:25:25.658Z,48.66
2022-07-26T03:27:58.318Z,48.67
2022-07-26T03:31:01.309Z,48.65
2022-07-26T03:33:36.142Z,48.79
2022-07-26T03:36:06.607Z,48.86
2022-07-26T03:38:47.007Z,48.95
2022-07-26T03:41:16.401Z,48.85
2022-07-26T03:43:46.057Z,48.68
2022-07-26T03:46:15.937Z,48.52
2022-07-26T03:48:45.553Z,48.41
2022-07-26T03:51:17.186Z,48.34
2022-07-26T03:53:44.001Z,48.32
2022-07-26T03:56:31.021Z,48.20
2022-07-26T03:59:04.021Z,48.27
2022-07-26T04:01:31.199Z,48.19
2022-07-26T04:04:16.552Z,47.72
2022-07-26T04:07:03.243Z,47.10
2022-07-26T04:09:32.284Z,46.05
2022-07-26T04:12:00.792Z,44.24
2022-07-26T04:14:27.468Z,42.73
2022-07-26T04:16:54.117Z,41.26
2022-07-26T04:19:21.068Z,39.79
2022-07-26T04:21:47.881Z,38.78
2022-07-26T04:24:19.793Z,38.14
2022-07-26T04:26:55.343Z,37.33
2022-07-26T04:29:22.331Z,36.34
2022-07-26T04:31:51.716Z,35.86
2022-07-26T04:34:21.063Z,35.68
2022-07-26T04:36:47.872Z,35.24
2022-07-26T04:39:23.861Z,34.84
2022-07-26T04:41:50.480Z,34.25
2022-07-26T04:44:21.588Z,33.83
2022-07-26T04:46:48.557Z,33.61
2022-07-26T04:49:36.175Z,33.25
2022-07-26T04:52:11.630Z,32.70
2022-07-26T04:54:48.612Z,32.43
2022-07-26T04:57:15.567Z,32.28
2022-07-26T05:00:20.257Z,32.04
2022-07-26T05:03:21.648Z,31.88
2022-07-26T05:05:53.142Z,31.78
2022-07-26T05:08:32.212Z,31.72
2022-07-26T05:11:43.188Z,31.67
2022-07-26T05:17:27.291Z,31.82
2022-07-26T05:23:09.775Z,31.60
2022-07-26T05:25:48.398Z,30.79
2022-07-26T05:28:29.546Z,30.99
2022-07-26T05:31:41.379Z,30.53
2022-07-26T05:34:08.413Z,30.66
2022-07-26T05:36:40.607Z,30.54
2022-07-26T05:39:07.341Z,29.98
2022-07-26T05:41:36.473Z,29.96
2022-07-26T05:44:06.772Z,29.69
2022-07-26T05:46:34.021Z,29.46
2022-07-26T05:49:01.217Z,29.06
2022-07-26T05:54:46.861Z,29.06
2022-07-26T05:57:21.906Z,29.05
2022-07-26T06:00:02.494Z,29.10
2022-07-26T06:02:43.941Z,29.16
2022-07-26T06:05:15.399Z,28.81
2022-07-26T06:07:42.387Z,28.32
2022-07-26T06:10:26.963Z,28.33
2022-07-26T06:12:54.803Z,28.65
2022-07-26T06:15:39.742Z,28.32
2022-07-26T06:18:15.237Z,28.48
2022-07-26T06:20:44.722Z,29.18
2022-07-26T06:23:33.560Z,29.63
2022-07-26T06:26:05.038Z,30.30
2022-07-26T06:28:36.870Z,31.52
2022-07-26T06:31:05.850Z,31.14
2022-07-26T06:33:39.042Z,31.06
2022-07-26T06:36:06.219Z,31.45
2022-07-26T06:38:34.750Z,32.11
2022-07-26T06:41:02.129Z,32.34
2022-07-26T06:43:29.112Z,32.29
2022-07-26T06:45:56.087Z,32.92
2022-07-26T06:48:23.514Z,32.77
2022-07-26T06:50:50.632Z,32.55
2022-07-26T06:53:20.169Z,32.57
2022-07-26T06:55:56.762Z,32.76
2022-07-26T06:58:55.828Z,32.65
2022-07-26T07:01:57.987Z,32.25
2022-07-26T07:04:35.922Z,32.13
2022-07-26T07:07:09.956Z,32.24
2022-07-26T07:09:44.570Z,31.87
2022-07-26T07:13:00.562Z,31.22
2022-07-26T07:16:06.872Z,31.14
2022-07-26T07:19:14.009Z,31.03
2022-07-26T07:23:05.225Z,30.19
2022-07-26T07:31:49.153Z,28.86
2022-07-26T07:34:21.992Z,28.47
2022-07-26T07:36:51.831Z,27.16
2022-07-26T07:39:19.236Z,26.18
2022-07-26T07:41:50.536Z,26.50
2022-07-26T07:44:17.212Z,26.53
2022-07-26T07:46:43.982Z,26.19
2022-07-26T07:49:11.295Z,26.27
2022-07-26T07:51:38.469Z,25.96
2022-07-26T07:54:06.033Z,25.03
2022-07-26T07:56:34.119Z,25.15
2022-07-26T07:59:02.121Z,25.30
2022-07-26T08:01:39.668Z,25.53
2022-07-26T08:04:09.817Z,25.11
2022-07-26T08:06:36.917Z,23.99
2022-07-26T08:09:05.669Z,23.30
2022-07-26T08:11:34.379Z,23.60
2022-07-26T08:14:01.899Z,23.30
2022-07-26T08:16:28.707Z,23.30
2022-07-26T08:18:57.550Z,23.72
2022-07-26T08:21:27.541Z,23.96
2022-07-26T08:23:57.326Z,24.20
2022-07-26T08:26:24.713Z,24.18
2022-07-26T08:28:58.315Z,24.32
2022-07-26T08:31:34.434Z,24.27
2022-07-26T08:34:01.284Z,23.35
2022-07-26T08:36:32.292Z,22.92
2022-07-26T08:39:00.618Z,23.10
2022-07-26T08:41:28.186Z,23.05
2022-07-26T08:43:55.140Z,22.39
2022-07-26T08:46:26.913Z,21.88
2022-07-26T08:48:55.918Z,21.90
2022-07-26T08:51:25.363Z,22.42
2022-07-26T08:54:14.009Z,22.41
2022-07-26T08:56:53.935Z,22.84
2022-07-26T08:59:22.668Z,22.98
2022-07-26T09:02:03.756Z,23.32
2022-07-26T09:04:45.907Z,22.98
2022-07-26T09:07:21.171Z,23.03
2022-07-26T09:10:08.650Z,22.94
2022-07-26T09:12:36.650Z,23.36
2022-07-26T09:15:05.999Z,23.08
2022-07-26T09:17:41.366Z,23.29
2022-07-26T09:20:14.516Z,22.71
2022-07-26T09:22:56.500Z,22.59
2022-07-26T09:25:27.949Z,22.46
2022-07-26T09:27:58.536Z,22.44
2022-07-26T09:30:33.040Z,22.41
2022-07-26T09:33:11.242Z,22.42
2022-07-26T09:35:51.378Z,22.42
2022-07-26T09:38:19.666Z,22.43
2022-07-26T09:40:50.720Z,22.50
2022-07-26T09:43:23.876Z,22.48
2022-07-26T09:46:05.500Z,22.09
2022-07-26T09:49:08.230Z,22.09
2022-07-26T09:51:47.941Z,22.04
2022-07-26T09:54:33.065Z,21.58
2022-07-26T09:57:08.165Z,21.80
2022-07-26T09:59:43.878Z,21.82
2022-07-26T10:02:14.050Z,21.83
2022-07-26T10:07:32.143Z,21.66
2022-07-26T10:10:21.587Z,21.81
2022-07-26T10:12:54.696Z,21.69
2022-07-26T10:15:46.741Z,21.88
2022-07-26T10:18:35.763Z,22.29
2022-07-26T10:21:20.981Z,21.69
2022-07-26T10:23:56.347Z,21.56
2022-07-26T10:26:32.175Z,21.59
2022-07-26T10:29:17.312Z,21.48
2022-07-26T10:31:46.230Z,21.31
2022-07-26T10:34:34.971Z,21.16
2022-07-26T10:37:10.390Z,21.11
2022-07-26T10:39:38.468Z,20.55
2022-07-26T10:42:10.709Z,20.13
2022-07-26T10:44:45.864Z,20.18
2022-07-26T10:47:17.708Z,20.03
2022-07-26T10:50:17.865Z,19.99
2022-07-26T10:53:00.942Z,19.56
2022-07-26T10:55:27.683Z,19.70
2022-07-26T10:57:54.471Z,19.80
2022-07-26T11:00:24.341Z,20.07
2022-07-26T11:03:05.089Z,20.65
2022-07-26T11:05:46.508Z,20.62
2022-07-26T11:08:31.407Z,19.98
2022-07-26T11:11:00.892Z,19.69
2022-07-26T11:13:32.555Z,19.73
2022-07-26T11:16:01.848Z,19.93
2022-07-26T11:18:36.458Z,19.91
2022-07-26T11:21:12.230Z,19.54
2022-07-26T11:23:43.635Z,19.69
2022-07-26T11:26:24.395Z,19.82
2022-07-26T11:29:40.627Z,19.94
2022-07-26T11:32:19.202Z,19.63
2022-07-26T11:35:04.084Z,19.60
2022-07-26T11:37:41.925Z,19.88
2022-07-26T11:40:13.600Z,19.74
2022-07-26T11:42:40.948Z,19.94
2022-07-26T11:45:11.551Z,20.23
2022-07-26T11:47:47.381Z,19.80
2022-07-26T11:50:22.266Z,19.62
2022-07-26T11:52:53.873Z,19.93
2022-07-26T11:55:33.331Z,20.10
2022-07-26T11:58:09.989Z,19.59
2022-07-26T12:00:39.177Z,19.18
2022-07-26T12:03:06.109Z,19.19
2022-07-26T12:05:32.924Z,19.07
2022-07-26T12:08:06.693Z,19.15
2022-07-26T12:10:56.839Z,19.11
2022-07-26T12:13:25.959Z,19.11
2022-07-26T12:15:52.931Z,19.15
2022-07-26T12:18:30.423Z,19.23
2022-07-26T12:21:13.927Z,19.20
2022-07-26T12:23:48.804Z,19.22
2022-07-26T12:26:30.188Z,19.23
2022-07-26T12:29:20.708Z,19.60
2022-07-26T12:32:07.735Z,19.11
2022-07-26T12:35:13.388Z,18.79
2022-07-26T12:37:46.303Z,18.81
2022-07-26T12:40:17.872Z,18.87
2022-07-26T12:43:01.309Z,18.82
2022-07-26T12:45:38.583Z,18.87
2022-07-26T12:48:10.718Z,19.26
2022-07-26T12:50:37.621Z,19.42
2022-07-26T12:53:08.631Z,18.81
2022-07-26T12:55:35.627Z,18.70
2022-07-26T12:58:02.767Z,19.02
2022-07-26T13:00:30.092Z,19.28
2022-07-26T13:03:07.297Z,19.43
2022-07-26T13:05:33.985Z,19.27
2022-07-26T13:08:00.501Z,19.22
2022-07-26T13:10:35.644Z,18.71
2022-07-26T13:13:03.995Z,18.39
2022-07-26T13:15:36.839Z,18.41
2022-07-26T13:18:09.529Z,18.33
2022-07-26T13:20:37.857Z,18.76
2022-07-26T13:23:11.407Z,18.71
2022-07-26T13:25:40.561Z,18.47
2022-07-26T13:28:08.638Z,18.76
2022-07-26T13:30:37.761Z,18.89
2022-07-26T13:33:11.421Z,18.96
2022-07-26T13:35:39.246Z,19.00
2022-07-26T13:38:08.989Z,18.38
2022-07-26T13:40:36.072Z,17.89
2022-07-26T13:43:04.522Z,17.98
2022-07-26T13:45:33.493Z,17.88
2022-07-26T13:48:00.436Z,17.75
2022-07-26T13:50:27.918Z,17.61
2022-07-26T13:52:56.088Z,17.71
2022-07-26T13:55:24.017Z,17.76
2022-07-26T13:57:57.069Z,17.73
2022-07-26T14:00:48.497Z,17.84
2022-07-26T14:03:18.980Z,17.92
2022-07-26T14:05:46.493Z,17.95
2022-07-26T14:08:13.314Z,18.20
2022-07-26T14:10:40.158Z,18.63
2022-07-26T14:13:08.230Z,18.58
2022-07-26T14:15:38.124Z,17.97
2022-07-26T14:18:07.341Z,18.03
2022-07-26T14:20:34.051Z,17.97
2022-07-26T14:23:01.889Z,17.98
2022-07-26T14:25:29.079Z,18.23
2022-07-26T14:28:02.152Z,18.23
2022-07-26T14:30:28.800Z,18.50
2022-07-26T14:33:23.686Z,18.51
2022-07-26T14:35:50.703Z,18.11
2022-07-26T14:38:24.287Z,18.29
2022-07-26T14:41:07.682Z,18.42
2022-07-26T14:43:34.602Z,18.34
2022-07-26T14:46:03.667Z,18.44
2022-07-26T14:48:53.668Z,18.71
2022-07-26T14:51:28.925Z,18.55
2022-07-26T14:57:22.722Z,18.65
2022-07-26T15:00:06.136Z,18.79
2022-07-26T15:03:33.079Z,18.60
2022-07-26T15:05:59.950Z,18.62
2022-07-26T15:08:26.744Z,18.83
2022-07-26T15:10:53.796Z,18.74
2022-07-26T15:13:20.744Z,18.72
2022-07-26T15:15:47.462Z,18.56
2022-07-26T15:18:14.150Z,18.65
2022-07-26T15:20:42.832Z,18.74
2022-07-26T15:23:17.020Z,19.07
2022-07-26T15:25:44.073Z,18.65
2022-07-26T15:28:10.830Z,18.55
2022-07-26T15:30:37.570Z,18.62
2022-07-26T15:33:04.612Z,18.76
2022-07-26T15:35:32.123Z,18.89
2022-07-26T15:38:02.113Z,18.86
2022-07-26T15:44:20.318Z,18.62
2022-07-26T15:47:09.236Z,18.83
2022-07-26T15:49:40.838Z,19.27
2022-07-26T15:52:22.183Z,19.48
2022-07-26T15:54:58.365Z,19.15
2022-07-26T15:57:25.256Z,19.15
2022-07-26T16:00:03.777Z,19.39
2022-07-26T16:02:58.845Z,19.58
2022-07-26T16:06:30.543Z,19.67
2022-07-26T16:09:19.952Z,19.77
2022-07-26T16:13:16.390Z,23.62
2022-07-26T16:16:05.305Z,27.09
2022-07-26T16:19:04.681Z,28.87
2022-07-26T16:22:16.189Z,30.48
2022-07-26T16:28:21.027Z,32.43
2022-07-26T16:31:10.394Z,33.50
2022-07-26T16:34:28.386Z,34.24
2022-07-26T16:37:15.201Z,34.80
2022-07-26T16:40:11.556Z,35.19
2022-07-26T16:42:47.205Z,35.64
2022-07-26T16:45:30.361Z,36.14
2022-07-26T16:48:32.139Z,36.40
2022-07-26T16:51:26.742Z,36.78
2022-07-26T16:54:24.420Z,37.78
2022-07-26T17:00:17.882Z,38.56
2022-07-26T17:03:00.670Z,39.12
2022-07-26T17:12:17.093Z,39.70
2022-07-26T17:19:27.542Z,43.17
2022-07-26T17:30:45.930Z,44.91
2022-07-26T17:33:40.136Z,44.83
2022-07-26T17:40:34.529Z,45.23
2022-07-26T17:49:36.490Z,45.17
2022-07-26T17:56:01.580Z,45.23
2022-07-26T18:02:28.902Z,45.58
2022-07-26T18:09:11.052Z,45.88
2022-07-26T18:12:19.754Z,46.12
2022-07-26T18:15:52.999Z,46.17
2022-07-26T18:22:11.985Z,46.39
2022-07-26T18:28:56.394Z,46.48
2022-07-26T18:34:54.184Z,46.38
2022-07-26T18:40:16.342Z,47.04
2022-07-26T19:22:39.075Z,56.45
2022-07-26T19:37:34.873Z,56.72
2022-07-26T19:40:27.255Z,57.30
2022-07-26T19:47:22.239Z,57.18
2022-07-26T19:54:14.315Z,56.97
2022-07-26T19:56:59.471Z,57.32
2022-07-26T19:59:41.695Z,57.65
2022-07-26T20:02:22.703Z,57.99
2022-07-26T20:09:53.086Z,58.22
2022-07-26T20:13:57.713Z,58.72
2022-07-26T20:24:35.421Z,60.51
2022-07-26T20:27:29.756Z,61.16
2022-07-26T20:30:14.037Z,61.94
2022-07-26T20:32:47.486Z,59.52
2022-07-26T20:32:48.076Z,62.38
2022-07-26T20:50:59.899Z,66.49
2022-07-26T20:53:32.271Z,67.56
2022-07-26T21:03:35.622Z,69.88
2022-07-26T21:10:01.808Z,70.48
2022-07-26T21:30:38.138Z,69.72
2022-07-26T21:33:34.197Z,70.17
2022-07-26T21:36:15.740Z,70.75
2022-07-26T21:39:18.005Z,70.90
2022-07-26T21:55:54.895Z,69.40
2022-07-26T21:59:26.169Z,70.52
2022-07-26T22:10:04.108Z,70.63
2022-07-26T22:11:07.704Z,72.34
2022-07-26T22:18:05.225Z,76.60
2022-07-26T22:21:01.864Z,77.69
2022-07-26T22:28:30.338Z,78.84
2022-07-26T22:35:35.689Z,79.42
2022-07-26T22:40:01.711Z,78.86
2022-07-26T22:46:29.626Z,77.62
2022-07-26T22:53:37.967Z,76.66
2022-07-26T22:56:17.191Z,76.92
2022-07-26T22:59:04.742Z,76.69
2022-07-26T23:01:31.844Z,76.73
2022-07-26T23:04:38.173Z,76.62
2022-07-26T23:11:05.526Z,77.19
2022-07-26T23:14:20.817Z,77.67
2022-07-26T23:18:03.790Z,78.19
2022-07-26T23:21:54.617Z,78.43
2022-07-26T23:24:37.734Z,78.46
2022-07-26T23:28:35.288Z,79.26
2022-07-26T23:31:59.492Z,79.08
2022-07-26T23:34:50.908Z,79.29
2022-07-26T23:41:17.283Z,79.08
2022-07-26T23:49:03.500Z,78.69
2022-07-26T23:55:19.642Z,79.33
2022-07-26T23:58:11.997Z,79.24
